createdAt,value
2022-09-21T00:01:59.352Z,100.00
2022-09-21T00:04:29.754Z,100.00
2022-09-21T00:07:00.799Z,100.00
2022-09-21T00:09:32.061Z,100.00
2022-09-21T00:12:03.269Z,100.00
2022-09-21T00:14:32.959Z,100.00
2022-09-21T00:17:02.199Z,100.00
2022-09-21T00:19:31.971Z,100.00
2022-09-21T00:22:02.834Z,100.00
2022-09-21T00:24:33.321Z,100.00
2022-09-21T00:27:03.162Z,100.00
2022-09-21T00:29:34.066Z,100.00
2022-09-21T00:32:05.960Z,100.00
2022-09-21T00:34:37.780Z,100.00
2022-09-21T00:37:07.107Z,100.00
2022-09-21T00:39:37.114Z,100.00
2022-09-21T00:42:19.916Z,100.00
2022-09-21T00:44:51.052Z,100.00
2022-09-21T00:47:41.096Z,100.00
2022-09-21T00:50:15.240Z,100.00
2022-09-21T00:52:53.081Z,100.00
2022-09-21T00:55:30.137Z,100.00
2022-09-21T00:58:11.576Z,100.00
2022-09-21T01:00:44.793Z,100.00
2022-09-21T01:03:16.414Z,100.00
2022-09-21T01:05:48.804Z,99.97
2022-09-21T01:08:21.570Z,100.00
2022-09-21T01:11:21.931Z,100.00
2022-09-21T01:14:19.175Z,100.00
2022-09-21T01:17:24.770Z,100.00
2022-09-21T01:20:26.455Z,100.00
2022-09-21T01:23:08.368Z,100.00
2022-09-21T01:25:52.353Z,100.00
2022-09-21T01:28:41.596Z,100.00
2022-09-21T01:31:20.346Z,100.00
2022-09-21T01:33:55.502Z,100.00
2022-09-21T01:36:29.921Z,100.00
2022-09-21T01:39:10.536Z,100.00
2022-09-21T01:41:43.677Z,100.00
2022-09-21T01:44:20.665Z,100.00
2022-09-21T01:46:52.710Z,100.00
2022-09-21T01:49:30.396Z,100.00
2022-09-21T01:52:13.335Z,100.00
2022-09-21T01:54:55.902Z,100.00
2022-09-21T01:57:42.463Z,100.00
2022-09-21T02:00:14.999Z,100.00
2022-09-21T02:03:03.430Z,100.00
2022-09-21T02:05:33.991Z,100.00
2022-09-21T02:08:07.203Z,100.00
2022-09-21T02:10:52.924Z,100.00
2022-09-21T02:13:28.526Z,100.00
2022-09-21T02:16:14.147Z,100.00
2022-09-21T02:18:59.278Z,100.00
2022-09-21T02:21:40.311Z,100.00
2022-09-21T02:24:24.868Z,100.00
2022-09-21T02:27:04.055Z,100.00
2022-09-21T02:29:39.191Z,100.00
2022-09-21T02:32:34.003Z,100.00
2022-09-21T02:35:08.916Z,100.00
2022-09-21T02:37:58.182Z,100.00
2022-09-21T02:40:56.166Z,100.00
2022-09-21T02:43:47.712Z,100.00
2022-09-21T02:46:25.278Z,100.00
2022-09-21T02:49:07.719Z,100.00
2022-09-21T02:51:43.632Z,100.00
2022-09-21T02:54:16.183Z,100.00
2022-09-21T02:56:49.148Z,100.00
2022-09-21T02:59:19.303Z,100.00
2022-09-21T03:01:48.346Z,100.00
2022-09-21T03:04:17.906Z,100.00
2022-09-21T03:06:46.994Z,100.00
2022-09-21T03:09:18.448Z,100.00
2022-09-21T03:11:49.141Z,100.00
2022-09-21T03:14:20.043Z,100.00
2022-09-21T03:16:49.668Z,100.00
2022-09-21T03:19:18.748Z,100.00
2022-09-21T03:21:49.587Z,100.00
2022-09-21T03:24:39.056Z,100.00
2022-09-21T03:27:10.209Z,100.00
2022-09-21T03:29:40.488Z,100.00
2022-09-21T03:32:10.982Z,100.00
2022-09-21T03:34:39.689Z,100.00
2022-09-21T03:37:11.175Z,100.00
2022-09-21T03:39:41.101Z,100.00
2022-09-21T03:42:10.706Z,100.00
2022-09-21T03:44:42.300Z,100.00
2022-09-21T03:47:11.657Z,100.00
2022-09-21T03:49:42.280Z,100.00
2022-09-21T03:52:11.300Z,100.00
2022-09-21T03:54:41.515Z,100.00
2022-09-21T03:57:11.121Z,100.00
2022-09-21T03:59:40.137Z,100.00
2022-09-21T04:02:09.648Z,100.00
2022-09-21T04:04:39.647Z,100.00
2022-09-21T04:07:08.801Z,100.00
2022-09-21T04:09:38.128Z,100.00
2022-09-21T04:12:07.208Z,100.00
2022-09-21T04:14:37.279Z,100.00
2022-09-21T04:17:06.321Z,100.00
2022-09-21T04:19:36.125Z,100.00
2022-09-21T04:22:05.768Z,100.00
2022-09-21T04:24:35.112Z,100.00
2022-09-21T04:27:04.664Z,100.00
2022-09-21T04:29:33.939Z,100.00
2022-09-21T04:32:03.601Z,100.00
2022-09-21T04:34:32.744Z,100.00
2022-09-21T04:37:01.618Z,100.00
2022-09-21T04:39:30.312Z,100.00
2022-09-21T04:41:59.402Z,100.00
2022-09-21T04:44:29.827Z,100.00
2022-09-21T04:46:59.177Z,100.00
2022-09-21T04:49:28.336Z,100.00
2022-09-21T04:51:57.223Z,100.00
2022-09-21T04:54:26.813Z,100.00
2022-09-21T04:56:57.714Z,100.00
2022-09-21T04:59:26.755Z,100.00
2022-09-21T05:01:55.853Z,100.00
2022-09-21T05:04:24.649Z,100.00
2022-09-21T05:06:54.353Z,100.00
2022-09-21T05:09:41.468Z,100.00
2022-09-21T05:12:10.476Z,100.00
2022-09-21T05:14:39.563Z,100.00
2022-09-21T05:17:08.771Z,100.00
2022-09-21T05:19:37.763Z,100.00
2022-09-21T05:22:06.856Z,100.00
2022-09-21T05:24:36.159Z,100.00
2022-09-21T05:27:05.235Z,100.00
2022-09-21T05:29:34.542Z,100.00
2022-09-21T05:32:16.889Z,100.00
2022-09-21T05:35:22.340Z,100.00
2022-09-21T05:38:04.807Z,100.00
2022-09-21T05:40:34.473Z,100.00
2022-09-21T05:43:06.405Z,100.00
2022-09-21T05:45:37.273Z,100.00
2022-09-21T05:48:12.865Z,100.00
2022-09-21T05:51:10.257Z,100.00
2022-09-21T05:54:16.486Z,99.91
2022-09-21T05:57:07.284Z,99.82
2022-09-21T05:59:36.378Z,99.81
2022-09-21T06:02:27.295Z,99.87
2022-09-21T06:04:58.530Z,99.02
2022-09-21T06:07:27.207Z,98.37
2022-09-21T06:09:56.138Z,97.73
2022-09-21T06:12:24.898Z,97.42
2022-09-21T06:14:53.867Z,97.19
2022-09-21T06:17:23.392Z,97.39
2022-09-21T06:19:52.482Z,98.43
2022-09-21T06:22:21.523Z,97.32
2022-09-21T06:24:50.161Z,97.16
2022-09-21T06:27:19.262Z,97.57
2022-09-21T06:29:48.004Z,96.51
2022-09-21T06:32:17.181Z,96.30
2022-09-21T06:34:45.728Z,96.40
2022-09-21T06:37:14.232Z,96.28
2022-09-21T06:39:42.822Z,95.86
2022-09-21T06:42:11.780Z,95.55
2022-09-21T06:44:40.472Z,95.46
2022-09-21T06:47:09.562Z,95.23
2022-09-21T06:49:42.375Z,95.08
2022-09-21T06:52:12.365Z,95.05
2022-09-21T06:54:42.812Z,94.98
2022-09-21T06:57:11.784Z,94.81
2022-09-21T06:59:41.182Z,93.88
2022-09-21T07:02:10.281Z,94.48
2022-09-21T07:04:39.064Z,94.76
2022-09-21T07:07:07.705Z,94.58
2022-09-21T07:12:26.680Z,93.30
2022-09-21T07:14:55.720Z,93.24
2022-09-21T07:17:24.854Z,92.53
2022-09-21T07:19:53.715Z,92.56
2022-09-21T07:22:22.696Z,91.91
2022-09-21T07:24:51.284Z,91.02
2022-09-21T07:27:20.175Z,89.37
2022-09-21T07:29:48.700Z,89.39
2022-09-21T07:32:17.507Z,87.99
2022-09-21T07:34:47.063Z,86.48
2022-09-21T07:37:16.545Z,84.57
2022-09-21T07:39:45.242Z,85.80
2022-09-21T07:42:13.935Z,82.28
2022-09-21T07:44:43.125Z,83.90
2022-09-21T07:47:13.653Z,86.21
2022-09-21T07:49:43.020Z,86.00
2022-09-21T07:52:12.449Z,82.74
2022-09-21T07:54:41.139Z,82.21
2022-09-21T07:57:28.682Z,82.61
2022-09-21T07:59:58.484Z,81.17
2022-09-21T08:02:27.400Z,81.96
2022-09-21T08:04:55.963Z,80.95
2022-09-21T08:07:24.644Z,80.26
2022-09-21T08:09:53.330Z,81.56
2022-09-21T08:12:23.458Z,80.42
2022-09-21T08:14:53.175Z,80.55
2022-09-21T08:17:21.732Z,79.55
2022-09-21T08:19:50.417Z,78.19
2022-09-21T08:22:19.213Z,79.71
2022-09-21T08:24:49.104Z,78.21
2022-09-21T08:27:17.706Z,78.88
2022-09-21T08:29:46.592Z,77.25
2022-09-21T08:32:27.715Z,75.62
2022-09-21T08:35:04.856Z,74.46
2022-09-21T08:37:36.476Z,73.72
2022-09-21T08:40:07.947Z,72.34
2022-09-21T08:42:36.862Z,72.70
2022-09-21T08:45:13.881Z,75.06
2022-09-21T08:47:49.921Z,74.48
2022-09-21T08:50:40.223Z,72.70
2022-09-21T08:53:13.775Z,74.38
2022-09-21T08:55:42.811Z,71.86
2022-09-21T08:58:29.344Z,70.61
2022-09-21T09:01:31.527Z,69.45
2022-09-21T09:04:16.598Z,68.06
2022-09-21T09:06:48.465Z,68.87
2022-09-21T09:09:55.374Z,67.23
2022-09-21T09:12:55.995Z,67.72
2022-09-21T09:15:49.540Z,67.69
2022-09-21T09:18:46.027Z,67.91
2022-09-21T09:21:27.580Z,68.62
2022-09-21T09:24:04.840Z,66.58
2022-09-21T09:26:48.302Z,69.02
2022-09-21T09:29:21.802Z,68.54
2022-09-21T09:31:55.082Z,68.47
2022-09-21T09:34:32.893Z,67.51
2022-09-21T09:37:15.608Z,66.79
2022-09-21T09:39:55.499Z,67.10
2022-09-21T09:42:47.587Z,66.83
2022-09-21T09:45:37.954Z,65.91
2022-09-21T09:48:34.227Z,66.62
2022-09-21T09:51:04.646Z,66.25
2022-09-21T09:53:34.459Z,66.08
2022-09-21T09:56:03.041Z,64.98
2022-09-21T09:58:31.926Z,65.41
2022-09-21T10:01:01.742Z,64.59
2022-09-21T10:03:30.634Z,64.86
2022-09-21T10:05:59.319Z,63.98
2022-09-21T10:08:31.087Z,63.01
2022-09-21T10:10:59.818Z,62.30
2022-09-21T10:13:39.916Z,61.02
2022-09-21T10:16:14.981Z,61.88
2022-09-21T10:18:49.794Z,59.42
2022-09-21T10:21:27.375Z,59.79
2022-09-21T10:24:07.947Z,59.44
2022-09-21T10:26:49.435Z,59.08
2022-09-21T10:29:25.585Z,57.99
2022-09-21T10:31:57.307Z,56.04
2022-09-21T10:34:30.564Z,54.29
2022-09-21T10:37:03.040Z,55.95
2022-09-21T10:39:35.500Z,56.49
2022-09-21T10:42:14.359Z,55.53
2022-09-21T10:44:46.203Z,57.21
2022-09-21T10:47:16.723Z,53.91
2022-09-21T10:49:57.803Z,54.29
2022-09-21T10:52:35.103Z,51.99
2022-09-21T10:55:05.155Z,52.02
2022-09-21T10:57:34.954Z,52.88
2022-09-21T11:00:36.849Z,50.49
2022-09-21T11:03:42.630Z,47.31
2022-09-21T11:06:17.333Z,44.20
2022-09-21T11:08:50.193Z,42.76
2022-09-21T11:11:30.878Z,40.73
2022-09-21T11:14:47.477Z,40.51
2022-09-21T11:17:58.979Z,39.31
2022-09-21T11:20:42.970Z,37.81
2022-09-21T11:23:29.319Z,38.76
2022-09-21T11:26:25.776Z,34.96
2022-09-21T11:29:02.988Z,35.75
2022-09-21T11:31:50.931Z,33.91
2022-09-21T11:34:19.846Z,34.95
2022-09-21T11:36:51.334Z,36.20
2022-09-21T11:39:35.168Z,36.58
2022-09-21T11:42:21.680Z,38.87
2022-09-21T11:45:01.016Z,40.43
2022-09-21T11:48:04.103Z,41.98
2022-09-21T11:50:56.801Z,42.90
2022-09-21T11:54:05.549Z,45.27
2022-09-21T11:56:50.764Z,47.04
2022-09-21T11:59:39.286Z,48.76
2022-09-21T12:02:31.357Z,50.64
2022-09-21T12:05:16.699Z,50.99
2022-09-21T12:08:02.417Z,52.03
2022-09-21T12:10:44.397Z,48.09
2022-09-21T12:13:41.418Z,46.00
2022-09-21T12:16:12.163Z,43.83
2022-09-21T12:18:59.076Z,43.94
2022-09-21T12:21:50.093Z,44.60
2022-09-21T12:24:32.300Z,44.31
2022-09-21T12:27:27.811Z,44.10
2022-09-21T12:30:04.593Z,43.28
2022-09-21T12:32:53.644Z,42.06
2022-09-21T12:35:43.925Z,39.16
2022-09-21T12:38:22.099Z,37.94
2022-09-21T12:40:57.287Z,38.15
2022-09-21T12:43:28.501Z,36.76
2022-09-21T12:46:17.949Z,37.50
2022-09-21T12:48:46.512Z,36.74
2022-09-21T12:51:38.864Z,36.72
2022-09-21T12:54:38.451Z,36.69
2022-09-21T12:57:42.993Z,35.96
2022-09-21T13:00:18.505Z,35.29
2022-09-21T13:03:10.482Z,36.33
2022-09-21T13:06:07.074Z,36.58
2022-09-21T13:08:41.434Z,38.77
2022-09-21T13:11:11.050Z,40.25
2022-09-21T13:14:02.362Z,41.33
2022-09-21T13:16:32.802Z,41.65
2022-09-21T13:19:05.426Z,43.54
2022-09-21T13:21:34.661Z,44.15
2022-09-21T13:24:06.529Z,43.72
2022-09-21T13:26:51.698Z,43.48
2022-09-21T13:29:20.233Z,43.06
2022-09-21T13:32:02.285Z,42.51
2022-09-21T13:34:36.785Z,42.30
2022-09-21T13:37:11.482Z,41.00
2022-09-21T13:39:58.089Z,42.11
2022-09-21T13:42:32.533Z,42.07
2022-09-21T13:45:16.548Z,41.63
2022-09-21T13:47:48.134Z,42.38
2022-09-21T13:50:37.383Z,43.80
2022-09-21T13:53:36.319Z,45.35
2022-09-21T13:56:17.146Z,46.08
2022-09-21T13:58:49.040Z,45.56
2022-09-21T14:01:45.722Z,46.77
2022-09-21T14:04:37.919Z,47.07
2022-09-21T14:07:08.414Z,46.70
2022-09-21T14:10:08.731Z,44.64
2022-09-21T14:12:45.847Z,42.82
2022-09-21T14:15:18.451Z,42.67
2022-09-21T14:18:21.930Z,41.91
2022-09-21T14:21:23.166Z,43.58
2022-09-21T14:24:07.738Z,44.67
2022-09-21T14:26:53.969Z,45.44
2022-09-21T14:29:37.940Z,45.54
2022-09-21T14:32:21.502Z,46.20
2022-09-21T14:34:55.870Z,46.59
2022-09-21T14:37:40.914Z,47.08
2022-09-21T14:40:19.945Z,47.72
2022-09-21T14:42:50.954Z,47.40
2022-09-21T14:45:29.451Z,46.75
2022-09-21T14:48:09.951Z,46.19
2022-09-21T14:50:52.038Z,47.47
2022-09-21T14:53:35.872Z,47.38
2022-09-21T14:56:24.926Z,48.04
2022-09-21T14:59:23.404Z,48.85
2022-09-21T15:02:18.671Z,50.11
2022-09-21T15:04:54.694Z,52.53
2022-09-21T15:07:51.307Z,53.34
2022-09-21T15:10:54.521Z,53.74
2022-09-21T15:13:49.011Z,54.75
2022-09-21T15:16:22.414Z,53.83
2022-09-21T15:19:00.491Z,55.41
2022-09-21T15:21:32.319Z,55.91
2022-09-21T15:24:18.219Z,57.41
2022-09-21T15:26:48.877Z,60.04
2022-09-21T15:29:36.315Z,61.19
2022-09-21T15:32:07.232Z,64.15
2022-09-21T15:34:36.135Z,64.04
2022-09-21T15:37:18.004Z,63.16
2022-09-21T15:39:59.999Z,63.58
2022-09-21T15:42:30.342Z,63.52
2022-09-21T15:45:26.180Z,63.39
2022-09-21T15:47:55.668Z,61.44
2022-09-21T15:50:26.442Z,61.36
2022-09-21T15:53:01.371Z,60.92
2022-09-21T15:55:30.623Z,61.67
2022-09-21T15:57:59.315Z,62.98
2022-09-21T16:00:32.895Z,66.26
2022-09-21T16:03:21.626Z,65.89
2022-09-21T16:05:55.613Z,64.99
2022-09-21T16:08:26.936Z,65.10
2022-09-21T16:11:13.489Z,66.36
2022-09-21T16:14:05.946Z,68.78
2022-09-21T16:17:18.252Z,72.01
2022-09-21T16:19:54.136Z,72.49
2022-09-21T16:22:30.333Z,70.31
2022-09-21T16:25:01.647Z,71.37
2022-09-21T16:27:32.687Z,72.09
2022-09-21T16:30:01.421Z,72.06
2022-09-21T16:32:34.830Z,72.40
2022-09-21T16:35:29.413Z,71.82
2022-09-21T16:38:01.586Z,71.31
2022-09-21T16:40:30.787Z,71.93
2022-09-21T16:43:00.339Z,73.89
2022-09-21T16:45:31.765Z,74.21
2022-09-21T16:48:01.168Z,73.21
2022-09-21T16:50:29.780Z,72.66
2022-09-21T16:52:58.347Z,74.85
2022-09-21T16:55:29.426Z,76.97
2022-09-21T16:57:59.750Z,81.35
2022-09-21T17:00:39.450Z,80.79
2022-09-21T17:03:14.518Z,82.17
2022-09-21T17:35:31.300Z,83.96
2022-09-21T17:37:59.468Z,83.65
2022-09-21T17:40:27.197Z,84.75
2022-09-21T17:43:06.215Z,87.08
2022-09-21T17:46:03.143Z,88.50
2022-09-21T17:48:39.734Z,85.79
2022-09-21T17:51:07.516Z,83.27
2022-09-21T17:53:37.998Z,85.10
2022-09-21T17:56:11.373Z,83.11
2022-09-21T17:59:11.264Z,81.67
2022-09-21T18:01:39.825Z,80.30
2022-09-21T18:04:10.435Z,81.70
2022-09-21T18:06:38.042Z,87.86
2022-09-21T18:09:05.881Z,87.21
2022-09-21T18:11:51.893Z,84.54
2022-09-21T18:14:27.950Z,83.64
2022-09-21T18:17:04.330Z,81.70
2022-09-21T18:19:42.073Z,88.17
2022-09-21T18:22:25.664Z,86.44
2022-09-21T18:24:55.375Z,87.55
2022-09-21T18:27:23.635Z,84.29
2022-09-21T18:29:51.396Z,87.13
2022-09-21T18:32:27.955Z,91.54
2022-09-21T18:35:11.553Z,92.63
2022-09-21T18:38:04.256Z,92.53
2022-09-21T18:40:36.484Z,91.29
2022-09-21T18:43:25.179Z,91.67
2022-09-21T18:46:01.346Z,92.03
2022-09-21T18:48:31.252Z,91.77
2022-09-21T18:51:25.741Z,92.89
2022-09-21T18:53:57.847Z,92.72
2022-09-21T18:56:28.760Z,92.23
2022-09-21T18:58:57.709Z,92.36
2022-09-21T19:01:28.675Z,92.30
2022-09-21T19:03:56.236Z,91.72
2022-09-21T19:06:52.962Z,92.45
2022-09-21T19:09:40.303Z,92.86
2022-09-21T19:12:37.351Z,94.77
2022-09-21T19:15:42.080Z,94.16
2022-09-21T19:18:35.446Z,94.83
2022-09-21T19:21:08.642Z,95.64
2022-09-21T19:23:59.299Z,95.34
2022-09-21T19:26:37.856Z,95.16
2022-09-21T19:29:18.523Z,94.33
2022-09-21T19:31:46.489Z,93.90
2022-09-21T19:34:17.636Z,92.99
2022-09-21T19:36:49.286Z,91.86
2022-09-21T19:39:17.260Z,91.63
2022-09-21T19:42:06.608Z,90.66
2022-09-21T19:44:47.291Z,90.23
2022-09-21T19:47:30.678Z,90.13
2022-09-21T19:50:18.867Z,89.51
2022-09-21T19:52:46.847Z,89.22
2022-09-21T19:55:39.179Z,88.95
2022-09-21T19:58:25.278Z,89.44
2022-09-21T20:00:55.237Z,87.41
2022-09-21T20:03:53.367Z,88.93
2022-09-21T20:06:26.572Z,88.06
2022-09-21T20:09:33.535Z,86.69
2022-09-21T20:12:22.397Z,86.14
2022-09-21T20:15:07.698Z,86.27
2022-09-21T20:17:45.479Z,85.99
2022-09-21T20:20:25.968Z,85.82
2022-09-21T20:22:55.201Z,86.05
2022-09-21T20:25:35.139Z,85.98
2022-09-21T20:28:03.766Z,86.37
2022-09-21T20:30:34.542Z,85.60
2022-09-21T20:33:14.148Z,85.52
2022-09-21T20:35:43.857Z,86.03
2022-09-21T20:38:11.468Z,87.28
2022-09-21T20:40:39.705Z,88.24
2022-09-21T20:43:09.373Z,88.27
2022-09-21T20:45:37.233Z,88.33
2022-09-21T20:48:13.729Z,86.60
2022-09-21T20:50:45.998Z,85.42
2022-09-21T20:53:13.663Z,87.48
2022-09-21T20:55:43.467Z,89.83
2022-09-21T20:58:12.673Z,91.19
2022-09-21T21:00:39.918Z,92.55
2022-09-21T21:03:07.578Z,93.03
2022-09-21T21:05:34.829Z,92.55
2022-09-21T21:08:03.517Z,91.84
2022-09-21T21:10:32.403Z,91.22
2022-09-21T21:13:01.218Z,91.43
2022-09-21T21:15:28.903Z,91.15
2022-09-21T21:17:56.215Z,92.37
2022-09-21T21:20:25.618Z,92.27
2022-09-21T21:22:54.607Z,93.20
2022-09-21T21:25:22.277Z,93.25
2022-09-21T21:27:49.647Z,93.28
2022-09-21T21:30:17.290Z,92.78
2022-09-21T21:32:45.055Z,91.52
2022-09-21T21:35:12.402Z,92.51
2022-09-21T21:37:40.065Z,90.21
2022-09-21T21:40:08.692Z,91.78
2022-09-21T21:42:36.165Z,94.86
2022-09-21T21:45:05.707Z,94.28
2022-09-21T21:47:41.331Z,96.48
2022-09-21T21:50:10.972Z,97.51
2022-09-21T21:52:38.946Z,98.09
2022-09-21T21:55:07.580Z,97.75
2022-09-21T21:57:34.928Z,97.28
2022-09-21T22:00:03.953Z,98.06
2022-09-21T22:02:32.338Z,98.47
2022-09-21T22:05:00.738Z,97.57
2022-09-21T22:07:28.090Z,96.92
2022-09-21T22:09:55.638Z,97.03
2022-09-21T22:12:23.524Z,98.62
2022-09-21T22:14:51.071Z,98.51
2022-09-21T22:17:19.036Z,98.37
2022-09-21T22:19:46.921Z,98.75
2022-09-21T22:22:14.670Z,98.02
2022-09-21T22:24:43.050Z,98.58
2022-09-21T22:27:10.857Z,99.24
2022-09-21T22:29:40.295Z,99.44
2022-09-21T22:32:08.400Z,99.20
2022-09-21T22:34:37.249Z,98.86
2022-09-21T22:37:05.176Z,99.23
2022-09-21T22:39:33.225Z,98.16
2022-09-21T22:42:04.796Z,95.92
2022-09-21T22:44:33.566Z,94.02
2022-09-21T22:47:01.767Z,94.16
2022-09-21T22:49:30.925Z,94.04
2022-09-21T22:51:59.111Z,94.17
2022-09-21T22:54:27.479Z,96.93
2022-09-21T22:56:55.452Z,97.29
2022-09-21T22:59:24.172Z,97.58
2022-09-21T23:01:52.837Z,97.97
2022-09-21T23:04:22.457Z,98.06
2022-09-21T23:06:51.010Z,98.21
2022-09-21T23:09:20.564Z,98.55
2022-09-21T23:11:53.318Z,98.06
2022-09-21T23:14:23.350Z,97.81
2022-09-21T23:16:51.401Z,97.90
2022-09-21T23:19:19.688Z,97.01
2022-09-21T23:21:50.167Z,96.31
2022-09-21T23:24:18.713Z,97.87
2022-09-21T23:26:51.181Z,97.70
2022-09-21T23:29:19.618Z,96.89
2022-09-21T23:31:47.940Z,95.72
2022-09-21T23:34:15.861Z,94.26
2022-09-21T23:36:45.518Z,94.09
2022-09-21T23:39:15.160Z,92.78
2022-09-21T23:41:44.900Z,93.05
2022-09-21T23:44:14.769Z,93.32
2022-09-21T23:46:45.722Z,92.47
2022-09-21T23:49:14.871Z,93.62
2022-09-21T23:51:42.818Z,95.40
2022-09-21T23:54:11.392Z,96.27
2022-09-21T23:56:40.595Z,96.18
2022-09-21T23:59:09.960Z,96.41
